createdAt,value
2017-05-31T00:00:07.235Z,956.86
2017-05-31T00:01:07.859Z,956.82
2017-05-31T00:02:07.529Z,956.78
2017-05-31T00:03:08.190Z,956.75
2017-05-31T00:04:07.839Z,956.75
2017-05-31T00:05:07.548Z,956.70
2017-05-31T00:06:08.132Z,956.69
2017-05-31T00:07:07.807Z,956.67
2017-05-31T00:08:07.499Z,956.63
2017-05-31T00:09:08.196Z,956.60
2017-05-31T00:10:07.839Z,956.61
2017-05-31T00:11:07.429Z,956.59
2017-05-31T00:12:08.144Z,956.63
2017-05-31T00:13:07.758Z,956.69
2017-05-31T00:14:07.369Z,956.77
2017-05-31T00:15:08.080Z,956.84
2017-05-31T00:16:07.745Z,956.94
2017-05-31T00:17:07.428Z,956.92
2017-05-31T00:18:08.201Z,956.97
2017-05-31T00:19:07.810Z,957.00
2017-05-31T00:20:07.508Z,956.89
2017-05-31T00:21:08.138Z,956.91
2017-05-31T00:22:07.801Z,956.88
2017-05-31T00:23:07.421Z,956.86
2017-05-31T00:24:08.110Z,956.79
2017-05-31T00:25:07.742Z,956.77
2017-05-31T00:26:07.391Z,956.80
2017-05-31T00:27:08.217Z,956.78
2017-05-31T00:28:07.811Z,956.86
2017-05-31T00:29:07.429Z,956.88
2017-05-31T00:30:08.210Z,956.87
2017-05-31T00:31:07.768Z,956.83
2017-05-31T00:32:07.463Z,956.86
2017-05-31T00:33:08.039Z,956.84
2017-05-31T00:34:07.725Z,956.84
2017-05-31T00:36:07.526Z,956.85
2017-05-31T00:37:08.156Z,956.83
2017-05-31T00:38:07.810Z,956.89
2017-05-31T00:39:12.438Z,956.97
2017-05-31T00:40:09.266Z,956.93
2017-05-31T00:41:08.923Z,956.95
2017-05-31T00:42:08.705Z,956.90
2017-05-31T00:43:09.211Z,956.96
2017-05-31T00:44:08.839Z,957.05
2017-05-31T00:45:07.445Z,956.97
2017-05-31T00:46:08.119Z,956.98
2017-05-31T00:47:08.825Z,956.95
2017-05-31T00:48:08.497Z,956.96
2017-05-31T00:49:09.121Z,956.98
2017-05-31T00:50:08.784Z,956.92
2017-05-31T00:51:08.494Z,956.94
2017-05-31T00:52:09.144Z,956.95
2017-05-31T00:53:08.789Z,956.93
2017-05-31T00:54:08.416Z,956.94
2017-05-31T00:55:07.993Z,956.95
2017-05-31T00:56:08.805Z,956.98
2017-05-31T00:57:07.343Z,957.03
2017-05-31T00:58:09.275Z,957.00
2017-05-31T00:59:08.692Z,956.98
2017-05-31T01:00:07.312Z,956.98
2017-05-31T01:01:07.907Z,956.98
2017-05-31T01:02:07.528Z,957.02
2017-05-31T01:03:08.160Z,957.05
2017-05-31T01:04:07.799Z,956.99
2017-05-31T01:05:07.471Z,957.05
2017-05-31T01:06:08.095Z,957.01
2017-05-31T01:07:07.750Z,957.01
2017-05-31T01:08:07.402Z,956.97
2017-05-31T01:09:08.002Z,956.96
2017-05-31T01:10:07.652Z,956.98
2017-05-31T01:11:07.373Z,957.03
2017-05-31T01:12:08.010Z,957.02
2017-05-31T01:13:08.735Z,957.00
2017-05-31T01:14:07.294Z,957.01
2017-05-31T01:15:08.002Z,957.02
2017-05-31T01:16:07.577Z,957.05
2017-05-31T01:17:07.370Z,957.07
2017-05-31T01:18:08.052Z,957.05
2017-05-31T01:19:07.667Z,957.08
2017-05-31T01:20:07.275Z,957.05
2017-05-31T01:21:07.911Z,957.02
2017-05-31T01:22:07.566Z,957.04
2017-05-31T01:23:08.204Z,957.00
2017-05-31T01:24:08.088Z,956.99
2017-05-31T01:25:07.522Z,957.03
2017-05-31T01:26:08.291Z,957.03
2017-05-31T01:27:07.906Z,957.02
2017-05-31T01:28:07.506Z,957.06
2017-05-31T01:29:08.212Z,957.07
2017-05-31T01:30:07.805Z,957.07
2017-05-31T01:31:07.424Z,957.05
2017-05-31T01:32:08.184Z,957.07
2017-05-31T01:33:07.832Z,957.09
2017-05-31T01:34:07.596Z,957.08
2017-05-31T01:35:08.173Z,957.08
2017-05-31T01:36:07.840Z,957.11
2017-05-31T01:37:07.473Z,957.09
2017-05-31T01:38:08.151Z,957.12
2017-05-31T01:39:07.788Z,957.14
2017-05-31T01:40:07.430Z,957.12
2017-05-31T01:41:08.067Z,957.16
2017-05-31T01:42:07.735Z,957.15
2017-05-31T01:43:07.382Z,957.14
2017-05-31T01:44:09.143Z,957.15
2017-05-31T01:45:07.672Z,957.14
2017-05-31T01:46:07.345Z,957.17
2017-05-31T01:47:18.557Z,957.14
2017-05-31T01:48:07.650Z,957.14
2017-05-31T01:49:07.298Z,957.16
2017-05-31T01:50:07.939Z,957.14
2017-05-31T01:51:07.633Z,957.13
2017-05-31T01:52:07.282Z,957.15
2017-05-31T01:53:07.931Z,957.15
2017-05-31T01:54:07.560Z,957.18
2017-05-31T01:55:07.373Z,957.14
2017-05-31T01:56:07.900Z,957.10
2017-05-31T01:57:07.550Z,957.07
2017-05-31T01:58:08.211Z,957.06
2017-05-31T01:59:07.834Z,957.06
2017-05-31T02:00:07.592Z,957.07
2017-05-31T02:01:08.123Z,957.07
2017-05-31T02:02:07.821Z,957.08
2017-05-31T02:03:07.445Z,957.09
2017-05-31T02:04:08.089Z,957.11
2017-05-31T02:05:07.777Z,957.11
2017-05-31T02:06:07.421Z,957.14
2017-05-31T02:07:08.131Z,957.23
2017-05-31T02:08:07.705Z,957.27
2017-05-31T02:09:07.351Z,957.26
2017-05-31T02:10:07.979Z,957.26
2017-05-31T02:11:07.698Z,957.32
2017-05-31T02:12:07.353Z,957.29
2017-05-31T02:13:07.969Z,957.27
2017-05-31T02:14:07.653Z,957.31
2017-05-31T02:15:07.376Z,957.31
2017-05-31T02:16:07.960Z,957.29
2017-05-31T02:17:07.760Z,957.28
2017-05-31T02:18:07.417Z,957.28
2017-05-31T02:19:08.086Z,957.30
2017-05-31T02:20:07.737Z,957.35
2017-05-31T02:21:07.412Z,957.34
2017-05-31T02:22:08.113Z,957.35
2017-05-31T02:23:07.747Z,957.35
2017-05-31T02:24:07.382Z,957.36
2017-05-31T02:25:07.987Z,957.40
2017-05-31T02:26:07.645Z,957.39
2017-05-31T02:27:07.368Z,957.40
2017-05-31T02:28:08.081Z,957.41
2017-05-31T02:29:07.681Z,957.44
2017-05-31T02:30:07.367Z,957.44
2017-05-31T02:31:07.903Z,957.44
2017-05-31T02:32:07.632Z,957.46
2017-05-31T02:33:08.212Z,957.46
2017-05-31T02:34:07.863Z,957.50
2017-05-31T02:35:07.578Z,957.48
2017-05-31T02:36:08.173Z,957.50
2017-05-31T02:37:07.904Z,957.49
2017-05-31T02:38:07.494Z,957.51
2017-05-31T02:39:08.166Z,957.56
2017-05-31T02:40:07.864Z,957.56
2017-05-31T02:41:07.495Z,957.51
2017-05-31T02:42:08.235Z,957.55
2017-05-31T02:43:07.802Z,957.52
2017-05-31T02:44:07.486Z,957.57
2017-05-31T02:45:08.198Z,957.55
2017-05-31T02:46:07.767Z,957.58
2017-05-31T02:47:07.481Z,957.57
2017-05-31T02:48:08.124Z,957.54
2017-05-31T02:49:07.852Z,957.49
2017-05-31T02:50:07.388Z,957.48
2017-05-31T02:51:08.072Z,957.48
2017-05-31T02:52:07.707Z,957.47
2017-05-31T02:53:07.302Z,957.49
2017-05-31T02:54:07.994Z,957.47
2017-05-31T02:55:07.643Z,957.47
2017-05-31T02:56:07.306Z,957.54
2017-05-31T02:57:07.988Z,957.50
2017-05-31T02:58:07.639Z,957.50
2017-05-31T02:59:07.335Z,957.50
2017-05-31T03:00:07.997Z,957.51
2017-05-31T03:01:07.596Z,957.47
2017-05-31T03:02:07.334Z,957.45
2017-05-31T03:03:07.917Z,957.48
2017-05-31T03:04:07.620Z,957.49
2017-05-31T03:05:07.271Z,957.52
2017-05-31T03:06:08.006Z,957.54
2017-05-31T03:07:07.612Z,957.56
2017-05-31T03:08:07.295Z,957.56
2017-05-31T03:09:07.944Z,957.57
2017-05-31T03:10:07.534Z,957.55
2017-05-31T03:11:08.194Z,957.51
2017-05-31T03:12:07.882Z,957.56
2017-05-31T03:13:07.511Z,957.54
2017-05-31T03:14:08.147Z,957.54
2017-05-31T03:15:07.848Z,957.61
2017-05-31T03:16:07.463Z,957.57
2017-05-31T03:17:08.282Z,957.61
2017-05-31T03:18:07.904Z,957.62
2017-05-31T03:19:07.504Z,957.63
2017-05-31T03:20:08.193Z,957.68
2017-05-31T03:21:07.815Z,957.63
2017-05-31T03:22:07.565Z,957.63
2017-05-31T03:23:08.191Z,957.73
2017-05-31T03:24:07.851Z,957.73
2017-05-31T03:25:07.494Z,957.72
2017-05-31T03:26:08.131Z,957.73
2017-05-31T03:27:07.778Z,957.74
2017-05-31T03:28:07.440Z,957.73
2017-05-31T03:29:08.071Z,957.70
2017-05-31T03:30:07.838Z,957.69
2017-05-31T03:31:07.343Z,957.76
2017-05-31T03:32:08.999Z,957.75
2017-05-31T03:33:07.721Z,957.78
2017-05-31T03:34:07.376Z,957.80
2017-05-31T03:35:18.128Z,957.85
2017-05-31T03:36:07.260Z,957.90
2017-05-31T03:38:07.541Z,957.89
2017-05-31T03:40:09.022Z,957.96
2017-05-31T03:42:09.040Z,957.99
2017-05-31T03:45:08.326Z,957.94
2017-05-31T03:48:10.137Z,958.01
2017-05-31T03:52:08.026Z,958.07
2017-05-31T03:55:09.061Z,958.11
2017-05-31T03:56:08.769Z,958.13
2017-05-31T03:57:08.433Z,958.16
2017-05-31T03:58:09.043Z,958.19
2017-05-31T03:59:08.743Z,958.20
2017-05-31T04:00:08.363Z,958.19
2017-05-31T04:01:08.072Z,958.19
2017-05-31T04:02:08.698Z,958.19
2017-05-31T04:03:08.335Z,958.17
2017-05-31T04:04:08.983Z,958.18
2017-05-31T04:05:07.528Z,958.20
2017-05-31T04:06:09.269Z,958.20
2017-05-31T04:07:08.284Z,958.19
2017-05-31T04:08:08.600Z,958.18
2017-05-31T04:09:09.254Z,958.23
2017-05-31T04:10:07.866Z,958.20
2017-05-31T04:11:08.556Z,958.19
2017-05-31T04:12:09.288Z,958.25
2017-05-31T04:13:08.985Z,958.21
2017-05-31T04:14:08.574Z,958.21
2017-05-31T04:15:08.272Z,958.22
2017-05-31T04:16:08.865Z,958.25
2017-05-31T04:17:07.519Z,958.23
2017-05-31T04:18:07.257Z,958.28
2017-05-31T04:21:07.362Z,958.27
2017-05-31T04:22:09.143Z,958.32
2017-05-31T04:23:08.819Z,958.33
2017-05-31T04:24:07.370Z,958.33
2017-05-31T04:25:11.150Z,958.35
2017-05-31T04:26:08.019Z,958.31
2017-05-31T04:27:08.740Z,958.33
2017-05-31T04:28:07.297Z,958.34
2017-05-31T04:29:08.015Z,958.35
2017-05-31T04:30:07.605Z,958.31
2017-05-31T04:31:07.302Z,958.37
2017-05-31T04:32:07.890Z,958.36
2017-05-31T04:33:08.614Z,958.39
2017-05-31T04:34:08.344Z,958.39
2017-05-31T04:35:08.964Z,958.38
2017-05-31T04:36:07.535Z,958.37
2017-05-31T04:37:08.165Z,958.39
2017-05-31T04:38:07.842Z,958.38
2017-05-31T04:39:08.617Z,958.45
2017-05-31T04:40:09.207Z,958.42
2017-05-31T04:41:07.783Z,958.42
2017-05-31T04:42:08.536Z,958.44
2017-05-31T04:43:09.185Z,958.46
2017-05-31T04:44:08.905Z,958.51
2017-05-31T04:45:07.412Z,958.50
2017-05-31T04:46:09.281Z,958.51
2017-05-31T04:47:08.845Z,958.53
2017-05-31T04:48:08.488Z,958.55
2017-05-31T04:49:09.187Z,958.52
2017-05-31T04:50:07.703Z,958.58
2017-05-31T04:51:07.379Z,958.57
2017-05-31T04:52:09.239Z,958.60
2017-05-31T04:53:07.806Z,958.59
2017-05-31T04:54:07.496Z,958.61
2017-05-31T04:55:08.186Z,958.60
2017-05-31T04:56:08.868Z,958.60
2017-05-31T04:57:08.646Z,958.63
2017-05-31T04:58:09.237Z,958.64
2017-05-31T04:59:08.871Z,958.68
2017-05-31T05:00:08.616Z,958.64
2017-05-31T05:01:09.308Z,958.62
2017-05-31T05:02:07.773Z,958.68
2017-05-31T05:03:07.573Z,958.65
2017-05-31T05:04:08.134Z,958.66
2017-05-31T05:05:07.806Z,958.63
2017-05-31T05:06:07.456Z,958.65
2017-05-31T05:07:08.037Z,958.65
2017-05-31T05:08:07.709Z,958.65
2017-05-31T05:09:07.365Z,958.63
2017-05-31T05:10:08.055Z,958.65
2017-05-31T05:11:07.768Z,958.61
2017-05-31T05:12:07.339Z,958.62
2017-05-31T05:13:07.975Z,958.61
2017-05-31T05:14:15.168Z,958.62
2017-05-31T05:15:07.304Z,958.62
2017-05-31T05:16:07.987Z,958.61
2017-05-31T05:17:07.738Z,958.65
2017-05-31T05:18:07.416Z,958.61
2017-05-31T05:19:08.036Z,958.60
2017-05-31T05:20:07.712Z,958.62
2017-05-31T05:21:07.476Z,958.63
2017-05-31T05:22:08.205Z,958.59
2017-05-31T05:23:07.866Z,958.59
2017-05-31T05:24:07.583Z,958.61
2017-05-31T05:25:08.186Z,958.61
2017-05-31T05:26:07.894Z,958.62
2017-05-31T05:27:07.551Z,958.63
2017-05-31T05:28:08.176Z,958.64
2017-05-31T05:29:07.816Z,958.65
2017-05-31T05:30:07.438Z,958.65
2017-05-31T05:31:08.153Z,958.63
2017-05-31T05:32:07.786Z,958.66
2017-05-31T05:33:07.433Z,958.62
2017-05-31T05:34:08.098Z,958.61
2017-05-31T05:35:07.728Z,958.67
2017-05-31T05:36:07.481Z,958.65
2017-05-31T05:37:08.085Z,958.68
2017-05-31T05:38:07.775Z,958.68
2017-05-31T05:39:07.403Z,958.67
2017-05-31T05:40:08.100Z,958.64
2017-05-31T05:41:07.802Z,958.69
2017-05-31T05:42:07.563Z,958.63
2017-05-31T05:43:08.114Z,958.69
2017-05-31T05:44:07.787Z,958.67
2017-05-31T05:45:07.438Z,958.71
2017-05-31T05:46:08.131Z,958.73
2017-05-31T05:47:07.850Z,958.72
2017-05-31T05:48:07.461Z,958.74
2017-05-31T05:49:08.116Z,958.69
2017-05-31T05:50:15.245Z,958.74
2017-05-31T05:51:07.412Z,958.71
2017-05-31T05:52:08.224Z,958.72
2017-05-31T05:53:07.856Z,958.72
2017-05-31T05:54:07.516Z,958.73
2017-05-31T05:55:08.187Z,958.70
2017-05-31T05:56:07.895Z,958.68
2017-05-31T05:57:07.533Z,958.72
2017-05-31T05:58:08.184Z,958.70
2017-05-31T05:59:07.842Z,958.74
2017-05-31T06:00:07.541Z,958.73
2017-05-31T06:01:07.220Z,958.75
2017-05-31T06:02:07.973Z,958.73
2017-05-31T06:03:07.494Z,958.75
2017-05-31T06:04:08.185Z,958.74
2017-05-31T06:05:07.951Z,958.72
2017-05-31T06:06:07.569Z,958.79
2017-05-31T06:07:08.164Z,958.79
2017-05-31T06:08:07.874Z,958.77
2017-05-31T06:09:07.512Z,958.79
2017-05-31T06:10:08.149Z,958.77
2017-05-31T06:11:07.943Z,958.73
2017-05-31T06:12:07.511Z,958.78
2017-05-31T06:13:08.194Z,958.77
2017-05-31T06:14:07.818Z,958.79
2017-05-31T06:15:07.488Z,958.78
2017-05-31T06:16:08.189Z,958.79
2017-05-31T06:17:07.969Z,958.80
2017-05-31T06:18:07.654Z,958.84
2017-05-31T06:19:07.272Z,958.83
2017-05-31T06:20:07.866Z,958.83
2017-05-31T06:21:07.628Z,958.88
2017-05-31T06:22:07.378Z,958.87
2017-05-31T06:23:08.012Z,958.85
2017-05-31T06:24:07.648Z,958.85
2017-05-31T06:25:07.281Z,958.88
2017-05-31T06:26:08.054Z,958.90
2017-05-31T06:27:07.592Z,958.91
2017-05-31T06:28:07.210Z,958.94
2017-05-31T06:29:07.916Z,958.91
2017-05-31T06:30:07.559Z,958.92
2017-05-31T06:31:07.333Z,958.90
2017-05-31T06:32:07.914Z,958.93
2017-05-31T06:33:07.521Z,958.90
2017-05-31T06:34:08.200Z,958.89
2017-05-31T06:35:07.861Z,958.94
2017-05-31T06:36:07.477Z,959.00
2017-05-31T06:37:08.238Z,958.96
2017-05-31T06:38:07.749Z,958.95
2017-05-31T06:39:07.417Z,958.91
2017-05-31T06:40:08.088Z,958.94
2017-05-31T06:41:07.811Z,958.95
2017-05-31T06:42:07.361Z,958.97
2017-05-31T06:43:08.022Z,958.99
2017-05-31T06:44:07.690Z,958.99
2017-05-31T06:45:07.348Z,958.99
2017-05-31T06:46:08.050Z,958.99
2017-05-31T06:47:07.695Z,959.04
2017-05-31T06:48:07.282Z,959.03
2017-05-31T06:49:07.951Z,958.99
2017-05-31T06:50:07.596Z,959.04
2017-05-31T06:51:07.334Z,959.02
2017-05-31T06:52:08.073Z,959.02
2017-05-31T06:53:07.699Z,959.00
2017-05-31T06:54:07.350Z,959.00
2017-05-31T06:55:08.017Z,958.97
2017-05-31T06:56:07.739Z,959.01
2017-05-31T06:57:07.324Z,958.96
2017-05-31T06:58:07.943Z,958.98
2017-05-31T06:59:07.635Z,958.96
2017-05-31T07:00:07.267Z,958.94
2017-05-31T07:01:07.957Z,958.99
2017-05-31T07:02:07.603Z,959.01
2017-05-31T07:03:07.199Z,958.99
2017-05-31T07:04:07.819Z,958.97
2017-05-31T07:05:07.546Z,958.99
2017-05-31T07:06:08.218Z,959.01
2017-05-31T07:07:07.885Z,958.99
2017-05-31T07:08:07.518Z,959.02
2017-05-31T07:09:08.198Z,959.01
2017-05-31T07:10:07.861Z,959.02
2017-05-31T07:11:07.530Z,959.03
2017-05-31T07:12:08.131Z,959.04
2017-05-31T07:13:07.828Z,959.01
2017-05-31T07:14:07.480Z,959.05
2017-05-31T07:15:08.092Z,959.05
2017-05-31T07:16:07.787Z,959.05
2017-05-31T07:17:07.664Z,959.10
2017-05-31T07:18:07.260Z,959.10
2017-05-31T07:19:07.925Z,959.07
2017-05-31T07:20:07.667Z,959.13
2017-05-31T07:21:07.290Z,959.15
2017-05-31T07:22:08.034Z,959.12
2017-05-31T07:23:07.710Z,959.13
2017-05-31T07:24:07.386Z,959.14
2017-05-31T07:25:08.008Z,959.15
2017-05-31T07:26:07.674Z,959.13
2017-05-31T07:27:07.267Z,959.14
2017-05-31T07:28:07.987Z,959.14
2017-05-31T07:29:07.602Z,959.12
2017-05-31T07:30:07.296Z,959.12
2017-05-31T07:31:08.001Z,959.12
2017-05-31T07:32:07.663Z,959.11
2017-05-31T07:33:07.204Z,959.14
2017-05-31T07:34:07.870Z,959.12
2017-05-31T07:35:07.520Z,959.13
2017-05-31T07:36:08.205Z,959.14
2017-05-31T07:37:07.845Z,959.14
2017-05-31T07:38:07.453Z,959.13
2017-05-31T07:39:08.103Z,959.16
2017-05-31T07:40:07.763Z,959.15
2017-05-31T07:41:07.452Z,959.16
2017-05-31T07:42:08.086Z,959.16
2017-05-31T07:43:07.701Z,959.19
2017-05-31T07:44:07.351Z,959.13
2017-05-31T07:45:08.019Z,959.15
2017-05-31T07:46:07.715Z,959.18
2017-05-31T07:47:07.308Z,959.14
2017-05-31T07:48:07.966Z,959.16
2017-05-31T07:49:07.604Z,959.17
2017-05-31T07:50:07.326Z,959.17
2017-05-31T07:51:08.015Z,959.16
2017-05-31T07:52:07.730Z,959.13
2017-05-31T07:53:07.504Z,959.12
2017-05-31T07:54:08.160Z,959.11
2017-05-31T07:55:07.816Z,959.09
2017-05-31T07:56:07.482Z,959.07
2017-05-31T07:57:08.124Z,959.08
2017-05-31T07:58:07.797Z,959.07
2017-05-31T07:59:07.448Z,959.06
2017-05-31T08:00:08.099Z,959.08
2017-05-31T08:01:07.751Z,959.05
2017-05-31T08:02:07.406Z,959.10
2017-05-31T08:03:08.030Z,959.06
2017-05-31T08:04:08.729Z,959.02
2017-05-31T08:05:07.339Z,959.04
2017-05-31T08:06:08.034Z,959.08
2017-05-31T08:07:07.653Z,959.09
2017-05-31T08:08:07.323Z,959.07
2017-05-31T08:09:07.991Z,959.08
2017-05-31T08:10:07.602Z,959.05
2017-05-31T08:11:07.270Z,959.04
2017-05-31T08:12:07.940Z,959.05
2017-05-31T08:13:07.568Z,959.02
2017-05-31T08:14:07.222Z,959.00
2017-05-31T08:15:07.897Z,959.04
2017-05-31T08:16:07.549Z,959.05
2017-05-31T08:17:07.846Z,959.05
2017-05-31T08:18:07.462Z,959.05
2017-05-31T08:19:08.099Z,959.04
2017-05-31T08:20:07.722Z,959.02
2017-05-31T08:21:07.452Z,959.06
2017-05-31T08:22:08.165Z,959.04
2017-05-31T08:23:07.932Z,959.05
2017-05-31T08:24:07.472Z,959.02
2017-05-31T08:25:08.122Z,959.03
2017-05-31T08:26:07.820Z,959.06
2017-05-31T08:27:07.452Z,959.07
2017-05-31T08:28:08.086Z,959.06
2017-05-31T08:29:07.870Z,959.04
2017-05-31T08:30:07.602Z,959.08
2017-05-31T08:31:07.313Z,959.08
2017-05-31T08:32:07.867Z,959.08
2017-05-31T08:33:07.506Z,959.01
2017-05-31T08:34:08.212Z,959.06
2017-05-31T08:35:07.814Z,959.07
2017-05-31T08:36:07.513Z,959.05
2017-05-31T08:37:08.106Z,959.00
2017-05-31T08:38:07.808Z,959.07
2017-05-31T08:39:07.416Z,959.04
2017-05-31T08:40:08.114Z,959.02
2017-05-31T08:41:07.799Z,959.05
2017-05-31T08:42:07.393Z,959.00
2017-05-31T08:43:08.090Z,958.96
2017-05-31T08:44:07.808Z,958.98
2017-05-31T08:45:07.320Z,958.99
2017-05-31T08:46:08.042Z,958.98
2017-05-31T08:47:07.662Z,958.98
2017-05-31T08:48:07.290Z,958.97
2017-05-31T08:49:07.957Z,958.97
2017-05-31T08:50:07.573Z,958.99
2017-05-31T08:51:07.233Z,959.02
2017-05-31T08:52:08.098Z,959.02
2017-05-31T08:53:07.706Z,959.04
2017-05-31T08:54:07.368Z,958.99
2017-05-31T08:55:08.068Z,959.04
2017-05-31T08:56:07.739Z,958.99
2017-05-31T08:57:07.292Z,959.02
2017-05-31T08:58:08.036Z,958.97
2017-05-31T08:59:07.640Z,959.01
2017-05-31T09:00:07.345Z,959.02
2017-05-31T09:01:08.101Z,959.02
2017-05-31T09:02:07.682Z,959.04
2017-05-31T09:03:14.831Z,959.02
2017-05-31T09:04:07.983Z,959.05
2017-05-31T09:05:07.644Z,959.01
2017-05-31T09:06:07.312Z,959.00
2017-05-31T09:07:07.859Z,958.97
2017-05-31T09:08:07.484Z,958.95
2017-05-31T09:09:08.141Z,958.99
2017-05-31T09:10:07.798Z,958.97
2017-05-31T09:11:07.465Z,959.00
2017-05-31T09:12:08.117Z,958.95
2017-05-31T09:13:07.885Z,958.96
2017-05-31T09:14:07.417Z,959.00
2017-05-31T09:15:08.027Z,958.95
2017-05-31T09:16:07.734Z,958.90
2017-05-31T09:17:07.556Z,958.86
2017-05-31T09:18:08.154Z,958.91
2017-05-31T09:19:07.813Z,958.85
2017-05-31T09:20:07.498Z,958.84
2017-05-31T09:21:08.230Z,958.85
2017-05-31T09:22:07.983Z,958.88
2017-05-31T09:23:07.675Z,958.86
2017-05-31T09:24:07.246Z,958.84
2017-05-31T09:25:07.923Z,958.82
2017-05-31T09:26:07.646Z,958.84
2017-05-31T09:27:07.232Z,958.82
2017-05-31T09:28:07.851Z,958.82
2017-05-31T09:29:07.680Z,958.88
2017-05-31T09:30:07.307Z,958.83
2017-05-31T09:31:08.032Z,958.81
2017-05-31T09:32:07.679Z,958.85
2017-05-31T09:33:07.297Z,958.87
2017-05-31T09:34:07.916Z,958.85
2017-05-31T09:35:07.600Z,958.84
2017-05-31T09:36:07.317Z,958.83
2017-05-31T09:37:07.922Z,958.84
2017-05-31T09:38:07.621Z,958.83
2017-05-31T09:39:07.259Z,958.83
2017-05-31T09:40:07.852Z,958.87
2017-05-31T09:41:07.695Z,958.85
2017-05-31T09:42:07.299Z,958.87
2017-05-31T09:43:07.952Z,958.88
2017-05-31T09:44:07.624Z,958.87
2017-05-31T09:45:07.194Z,958.91
2017-05-31T09:46:07.979Z,958.88
2017-05-31T09:47:07.633Z,958.94
2017-05-31T09:48:07.365Z,958.87
2017-05-31T09:49:08.013Z,958.86
2017-05-31T09:50:07.659Z,958.86
2017-05-31T09:51:07.309Z,958.86
2017-05-31T09:52:08.123Z,958.82
2017-05-31T09:53:07.811Z,958.87
2017-05-31T09:54:07.445Z,958.80
2017-05-31T09:55:08.131Z,958.83
2017-05-31T09:56:07.825Z,958.81
2017-05-31T09:57:07.493Z,958.84
2017-05-31T09:58:08.061Z,958.79
2017-05-31T09:59:07.785Z,958.84
2017-05-31T10:00:07.364Z,958.78
2017-05-31T10:01:08.052Z,958.75
2017-05-31T10:02:07.720Z,958.77
2017-05-31T10:03:07.377Z,958.78
2017-05-31T10:04:08.033Z,958.80
2017-05-31T10:05:07.646Z,958.80
2017-05-31T10:06:07.317Z,958.80
2017-05-31T10:07:08.037Z,958.76
2017-05-31T10:08:07.595Z,958.79
2017-05-31T10:09:07.272Z,958.74
2017-05-31T10:10:07.917Z,958.74
2017-05-31T10:11:07.594Z,958.72
2017-05-31T10:12:08.208Z,958.72
2017-05-31T10:13:07.880Z,958.73
2017-05-31T10:14:07.598Z,958.68
2017-05-31T10:15:08.140Z,958.74
2017-05-31T10:16:07.837Z,958.71
2017-05-31T10:17:07.538Z,958.69
2017-05-31T10:18:07.279Z,958.67
2017-05-31T10:19:08.041Z,958.68
2017-05-31T10:20:07.554Z,958.68
2017-05-31T10:21:08.264Z,958.64
2017-05-31T10:22:08.010Z,958.72
2017-05-31T10:23:07.674Z,958.69
2017-05-31T10:24:07.817Z,958.65
2017-05-31T10:25:07.974Z,958.64
2017-05-31T10:26:07.641Z,958.63
2017-05-31T10:27:07.296Z,958.60
2017-05-31T10:28:07.932Z,958.64
2017-05-31T10:29:07.624Z,958.62
2017-05-31T10:30:07.301Z,958.61
2017-05-31T10:33:07.343Z,958.59
2017-05-31T10:34:07.942Z,958.59
2017-05-31T10:35:07.562Z,958.61
2017-05-31T10:36:08.339Z,958.59
2017-05-31T10:37:09.028Z,958.61
2017-05-31T10:38:08.722Z,958.56
2017-05-31T10:39:07.262Z,958.61
2017-05-31T10:40:07.942Z,958.57
2017-05-31T10:41:08.732Z,958.56
2017-05-31T10:42:08.372Z,958.57
2017-05-31T10:43:07.886Z,958.54
2017-05-31T10:44:07.572Z,958.54
2017-05-31T10:45:08.288Z,958.50
2017-05-31T10:46:07.823Z,958.50
2017-05-31T10:47:07.546Z,958.51
2017-05-31T10:48:08.165Z,958.50
2017-05-31T10:49:07.805Z,958.54
2017-05-31T10:50:07.398Z,958.49
2017-05-31T10:51:08.061Z,958.49
2017-05-31T10:52:07.718Z,958.45
2017-05-31T10:53:07.395Z,958.47
2017-05-31T10:54:08.089Z,958.46
2017-05-31T10:55:07.730Z,958.43
2017-05-31T10:56:07.344Z,958.42
2017-05-31T10:57:08.048Z,958.49
2017-05-31T10:58:07.690Z,958.50
2017-05-31T10:59:07.396Z,958.48
2017-05-31T11:00:07.981Z,958.47
2017-05-31T11:01:07.605Z,958.46
2017-05-31T11:02:07.252Z,958.50
2017-05-31T11:03:07.941Z,958.45
2017-05-31T11:04:07.630Z,958.49
2017-05-31T11:05:07.222Z,958.50
2017-05-31T11:06:07.881Z,958.43
2017-05-31T11:07:07.547Z,958.47
2017-05-31T11:08:08.215Z,958.50
2017-05-31T11:09:07.960Z,958.47
2017-05-31T11:10:07.535Z,958.57
2017-05-31T11:11:08.239Z,958.51
2017-05-31T11:12:07.881Z,958.50
2017-05-31T11:13:07.479Z,958.52
2017-05-31T11:14:08.194Z,958.48
2017-05-31T11:15:07.825Z,958.49
2017-05-31T11:16:07.471Z,958.48
2017-05-31T11:17:08.137Z,958.51
2017-05-31T11:18:07.990Z,958.53
2017-05-31T11:19:07.617Z,958.49
2017-05-31T11:20:08.296Z,958.51
2017-05-31T11:21:07.884Z,958.49
2017-05-31T11:22:07.522Z,958.48
2017-05-31T11:23:08.164Z,958.50
2017-05-31T11:24:07.805Z,958.48
2017-05-31T11:25:07.531Z,958.48
2017-05-31T11:26:08.144Z,958.50
2017-05-31T11:27:07.760Z,958.44
2017-05-31T11:28:07.396Z,958.48
2017-05-31T11:29:08.187Z,958.44
2017-05-31T11:30:07.927Z,958.44
2017-05-31T11:31:07.516Z,958.47
2017-05-31T11:32:08.120Z,958.38
2017-05-31T11:33:07.805Z,958.39
2017-05-31T11:34:07.477Z,958.35
2017-05-31T11:35:08.132Z,958.37
2017-05-31T11:36:07.891Z,958.40
2017-05-31T11:37:07.488Z,958.37
2017-05-31T11:38:08.216Z,958.39
2017-05-31T11:39:07.807Z,958.36
2017-05-31T11:40:07.466Z,958.40
2017-05-31T11:41:08.273Z,958.38
2017-05-31T11:42:07.845Z,958.35
2017-05-31T11:43:07.555Z,958.40
2017-05-31T11:44:08.112Z,958.37
2017-05-31T11:45:07.758Z,958.34
2017-05-31T11:46:07.555Z,958.34
2017-05-31T11:47:08.127Z,958.32
2017-05-31T11:48:07.908Z,958.32
2017-05-31T11:49:07.447Z,958.33
2017-05-31T11:50:08.122Z,958.30
2017-05-31T11:51:07.774Z,958.25
2017-05-31T11:52:07.446Z,958.26
2017-05-31T11:53:08.107Z,958.23
2017-05-31T11:54:07.787Z,958.29
2017-05-31T11:55:07.409Z,958.23
2017-05-31T11:56:08.124Z,958.24
2017-05-31T11:57:07.740Z,958.23
2017-05-31T11:58:07.381Z,958.28
2017-05-31T11:59:08.056Z,958.33
2017-05-31T12:00:07.697Z,958.27
2017-05-31T12:01:07.496Z,958.22
2017-05-31T12:02:08.029Z,958.23
2017-05-31T12:03:07.695Z,958.23
2017-05-31T12:04:07.372Z,958.17
2017-05-31T12:05:07.863Z,958.16
2017-05-31T12:06:07.564Z,958.16
2017-05-31T12:07:08.232Z,958.19
2017-05-31T12:08:07.891Z,958.14
2017-05-31T12:09:07.544Z,958.14
2017-05-31T12:10:07.258Z,958.16
2017-05-31T12:11:07.943Z,958.13
2017-05-31T12:12:07.535Z,958.08
2017-05-31T12:13:08.198Z,958.09
2017-05-31T12:14:07.831Z,958.09
2017-05-31T12:15:07.487Z,958.07
2017-05-31T12:16:08.193Z,958.05
2017-05-31T12:17:07.886Z,958.03
2017-05-31T12:18:07.667Z,958.05
2017-05-31T12:19:07.247Z,958.03
2017-05-31T12:20:07.907Z,958.07
2017-05-31T12:21:07.582Z,958.02
2017-05-31T12:22:08.223Z,958.04
2017-05-31T12:23:07.888Z,958.05
2017-05-31T12:24:07.565Z,958.05
2017-05-31T12:25:08.197Z,958.04
2017-05-31T12:26:07.903Z,958.00
2017-05-31T12:27:07.531Z,958.00
2017-05-31T12:28:08.284Z,958.00
2017-05-31T12:29:07.950Z,957.99
2017-05-31T12:30:07.471Z,957.95
2017-05-31T12:31:08.154Z,957.98
2017-05-31T12:32:07.810Z,957.96
2017-05-31T12:33:07.546Z,957.98
2017-05-31T12:34:08.236Z,957.91
2017-05-31T12:35:07.759Z,957.91
2017-05-31T12:36:15.004Z,957.96
2017-05-31T12:37:08.155Z,957.92
2017-05-31T12:38:07.723Z,957.97
2017-05-31T12:39:07.384Z,957.93
2017-05-31T12:40:08.076Z,957.93
2017-05-31T12:41:07.704Z,957.92
2017-05-31T12:42:07.398Z,957.93
2017-05-31T12:43:08.031Z,957.91
2017-05-31T12:44:07.684Z,957.90
2017-05-31T12:45:07.297Z,957.94